Flight Track Log - Related Links

Times and Time Zones

All times are in EST time to prevent confusion due to time zone crossing. See the SWA1031 flight status page for this flight to view local times or setup timezone preferences in your user account.

Time Position Orientation Groundspeed Altitude Reporting Facility
EST Latitude Longitude Course Direction KTS MPH feet Rate Location/Type
Mon 08:45:30 PM 38.8156 -90.3933 347° North 174 200 7,600  Level Kansas City Center
Mon 08:46:32 PM 38.8369 -90.3225 69° East 237 273 12,000 3,967 Climbing Kansas City Center
Mon 08:47:31 PM 38.7925 -90.1908 113° Southeast 342 394 15,600 3,570 Climbing Kansas City Center
Mon 08:48:33 PM 38.7483 -90.0669 115° Southeast 371 427 19,200 3,463 Climbing Kansas City Center
Mon 08:49:34 PM 38.6983 -89.9242 114° Southeast 404 465 22,700 1,869 Climbing Kansas City Center
Mon 08:50:35 PM 38.6483 -89.7858 115° Southeast 422 486 23,000 1,659 Climbing Kansas City Center
Mon 08:51:37 PM 38.5983 -89.6486 115° Southeast 426 490 26,100 2,902 Climbing Kansas City Center
Mon 08:52:37 PM 38.5478 -89.5100 115° Southeast 429 494 28,900 1,426 Climbing Kansas City Center
Mon 08:53:39 PM 38.4967 -89.3697 115° Southeast 436 502 29,000 49 Climbing Kansas City Center
Mon 08:54:39 PM 38.4392 -89.2125 115° Southeast 457 526 29,000  Level Kansas City Center
Mon 08:55:42 PM 38.4131 -89.0431 101° East 485 558 29,000  Level Kansas City Center
Mon 08:56:45 PM 38.4067 -88.8581 92° East 485 558 29,000  Level Kansas City Center
Mon 08:57:45 PM 38.3981 -88.6867 94° East 486 559 29,000  Level Kansas City Center
Mon 08:58:47 PM 38.3908 -88.5325 93° East 489 563 29,000 -537 Level Kansas City Center
Mon 08:59:48 PM 38.3831 -88.3592 93° East 489 563 27,900 -1,000 Descending Kansas City Center
Mon 09:00:47 PM 38.3750 -88.1906 93° East 479 551 27,000 -439 Descending Kansas City Center
Mon 09:01:51 PM 38.3656 -87.9903 93° East 472 543 27,000  Level Kansas City Center
Mon 09:02:52 PM 38.3567 -87.8214 94° East 474 545 27,000  Level Kansas City Center
Mon 09:03:48 PM 38.3503 -87.6900 94° East 473 544 27,000 -462 Level Indianapolis Center
Mon 09:04:49 PM 38.3408 -87.5219 94° East 474 545 26,100 -1,820 Descending Indianapolis Center
Mon 09:05:50 PM 38.3308 -87.3283 94° East 457 526 23,300 -2,459 Descending Indianapolis Center
Mon 09:06:51 PM 38.3144 -87.1750 98° East 438 504 21,100 -2,000 Descending Indianapolis Center
Mon 09:07:53 PM 38.2958 -87.0342 100° East 428 493 19,200 -1,805 Descending Indianapolis Center
Mon 09:08:54 PM 38.2794 -86.8972 99° East 416 479 17,400 -2,115 Descending Indianapolis Center
Mon 09:09:55 PM 38.2619 -86.7561 99° East 405 466 14,900 -2,164 Descending Indianapolis Center
Mon 09:10:56 PM 38.2428 -86.6183 100° East 398 458 13,000 -1,475 Descending Indianapolis Center
Mon 09:11:57 PM 38.2011 -86.4983 114° Southeast 374 430 11,900 -1,082 Descending Indianapolis Center
Mon 09:12:58 PM 38.1631 -86.3889 114° Southeast 344 396 10,800 -934 Descending Indianapolis Center
Mon 09:13:59 PM 38.1269 -86.2869 114° Southeast 320 368 10,000 -393 Descending Indianapolis Center
Mon 09:15:00 PM 38.0931 -86.1864 113° Southeast 308 354 10,000 -148 Level Indianapolis Center
Mon 09:16:01 PM 38.0581 -86.0881 114° Southeast 305 351 9,700 -934 Descending Indianapolis Center
Mon 09:17:02 PM 38.0189 -85.9747 114° Southeast 292 336 8,100 -1,475 Descending Indianapolis Center
Mon 09:18:03 PM 37.9894 -85.8833 112° Southeast 285 328 6,700 -1,279 Descending Indianapolis Center
Mon 09:19:04 PM 37.9586 -85.7939 114° Southeast 280 322 5,500 -1,073 Descending Indianapolis Center
Mon 09:20:06 PM 37.9536 -85.7100 94° East 269 310 4,500 -976 Descending Indianapolis Center
Mon 09:21:07 PM 38.0014 -85.6847 23° Northeast 231 266 3,500 -738 Descending Indianapolis Center
Mon 09:22:08 PM 38.0472 -85.6997 346° North 195 224 3,000 -676 Descending Indianapolis Center
Mon 09:24:31 PM 38.1333 -85.7333 343° North 115 132 1,200 -755 Descending Louisville TRACON

Login

Don't have an account? Register now (free) for customized features, flight alerts, and more!